sensor_id;sensor_type;location;lat;lon;timestamp;temperature;humidity
44843;DHT22;31884;52.538;13.820;2023-10-09T00:01:28;9.40;99.90
44843;DHT22;31884;52.538;13.820;2023-10-09T00:03:55;9.40;99.90
44843;DHT22;31884;52.538;13.820;2023-10-09T00:06:22;9.40;99.90
44843;DHT22;31884;52.538;13.820;2023-10-09T00:08:56;9.40;99.90
44843;DHT22;31884;52.538;13.820;2023-10-09T00:11:22;9.40;99.90
44843;DHT22;31884;52.538;13.820;2023-10-09T00:13:51;9.50;99.90
44843;DHT22;31884;52.538;13.820;2023-10-09T00:16:23;9.50;99.90
44843;DHT22;31884;52.538;13.820;2023-10-09T00:19:06;9.50;99.90
44843;DHT22;31884;52.538;13.820;2023-10-09T00:21:45;9.50;99.90
44843;DHT22;31884;52.538;13.820;2023-10-09T00:24:11;9.50;99.90
44843;DHT22;31884;52.538;13.820;2023-10-09T00:26:45;9.40;99.90
44843;DHT22;31884;52.538;13.820;2023-10-09T00:29:14;9.40;99.90
44843;DHT22;31884;52.538;13.820;2023-10-09T00:31:42;9.50;99.90
44843;DHT22;31884;52.538;13.820;2023-10-09T00:34:18;9.50;99.90
44843;DHT22;31884;52.538;13.820;2023-10-09T00:36:46;9.50;99.90
44843;DHT22;31884;52.538;13.820;2023-10-09T00:39:21;9.50;99.90
44843;DHT22;31884;52.538;13.820;2023-10-09T00:42:02;9.40;99.90
44843;DHT22;31884;52.538;13.820;2023-10-09T00:44:28;9.40;99.90
44843;DHT22;31884;52.538;13.820;2023-10-09T00:47:08;9.40;99.90
44843;DHT22;31884;52.538;13.820;2023-10-09T00:50:03;9.40;99.90
44843;DHT22;31884;52.538;13.820;2023-10-09T00:52:37;9.40;99.90
44843;DHT22;31884;52.538;13.820;2023-10-09T00:55:05;9.40;99.90
44843;DHT22;31884;52.538;13.820;2023-10-09T00:57:43;9.40;99.90
44843;DHT22;31884;52.538;13.820;2023-10-09T01:00:21;9.40;99.90
44843;DHT22;31884;52.538;13.820;2023-10-09T01:03:06;9.30;99.90
44843;DHT22;31884;52.538;13.820;2023-10-09T01:05:44;9.30;99.90
44843;DHT22;31884;52.538;13.820;2023-10-09T01:08:24;9.30;99.90
44843;DHT22;31884;52.538;13.820;2023-10-09T01:10:55;9.30;99.90
44843;DHT22;31884;52.538;13.820;2023-10-09T01:13:34;9.20;99.90
44843;DHT22;31884;52.538;13.820;2023-10-09T01:16:12;9.20;99.90
44843;DHT22;31884;52.538;13.820;2023-10-09T01:18:54;9.20;99.90
44843;DHT22;31884;52.538;13.820;2023-10-09T01:21:22;9.20;99.90
44843;DHT22;31884;52.538;13.820;2023-10-09T01:23:53;9.10;99.90
44843;DHT22;31884;52.538;13.820;2023-10-09T01:26:31;9.10;99.90
44843;DHT22;31884;52.538;13.820;2023-10-09T01:28:59;9.20;99.90
44843;DHT22;31884;52.538;13.820;2023-10-09T01:31:26;9.20;99.90
44843;DHT22;31884;52.538;13.820;2023-10-09T01:33:52;9.20;99.90
44843;DHT22;31884;52.538;13.820;2023-10-09T01:36:28;9.10;99.90
44843;DHT22;31884;52.538;13.820;2023-10-09T01:39:01;9.20;99.90
44843;DHT22;31884;52.538;13.820;2023-10-09T01:41:47;9.10;99.90
44843;DHT22;31884;52.538;13.820;2023-10-09T01:44:14;9.10;99.90
44843;DHT22;31884;52.538;13.820;2023-10-09T01:46:42;9.10;99.90
44843;DHT22;31884;52.538;13.820;2023-10-09T01:49:08;9.10;99.90
44843;DHT22;31884;52.538;13.820;2023-10-09T01:51:42;9.00;99.90
44843;DHT22;31884;52.538;13.820;2023-10-09T01:54:07;9.00;99.90
44843;DHT22;31884;52.538;13.820;2023-10-09T01:56:32;9.00;99.90
44843;DHT22;31884;52.538;13.820;2023-10-09T01:59:02;9.00;99.90
44843;DHT22;31884;52.538;13.820;2023-10-09T02:01:31;8.90;99.90
44843;DHT22;31884;52.538;13.820;2023-10-09T02:03:58;8.90;99.90
44843;DHT22;31884;52.538;13.820;2023-10-09T02:06:30;8.90;99.90
44843;DHT22;31884;52.538;13.820;2023-10-09T02:08:57;8.80;99.90
44843;DHT22;31884;52.538;13.820;2023-10-09T02:11:25;8.80;99.90
44843;DHT22;31884;52.538;13.820;2023-10-09T02:14:03;8.80;99.90
44843;DHT22;31884;52.538;13.820;2023-10-09T02:16:31;8.80;99.90
44843;DHT22;31884;52.538;13.820;2023-10-09T02:19:07;8.80;99.90
44843;DHT22;31884;52.538;13.820;2023-10-09T02:21:52;8.80;99.90
44843;DHT22;31884;52.538;13.820;2023-10-09T02:24:19;8.80;99.90
44843;DHT22;31884;52.538;13.820;2023-10-09T02:27:04;8.80;99.90
44843;DHT22;31884;52.538;13.820;2023-10-09T02:29:32;8.70;99.90
44843;DHT22;31884;52.538;13.820;2023-10-09T02:32:00;8.70;99.90
44843;DHT22;31884;52.538;13.820;2023-10-09T02:34:38;8.70;99.90
44843;DHT22;31884;52.538;13.820;2023-10-09T02:37:04;8.70;99.90
44843;DHT22;31884;52.538;13.820;2023-10-09T02:39:39;8.80;99.90
44843;DHT22;31884;52.538;13.820;2023-10-09T02:42:13;8.80;99.90
44843;DHT22;31884;52.538;13.820;2023-10-09T02:44:39;8.80;99.90
44843;DHT22;31884;52.538;13.820;2023-10-09T02:47:16;8.80;99.90
44843;DHT22;31884;52.538;13.820;2023-10-09T02:49:49;8.80;99.90
44843;DHT22;31884;52.538;13.820;2023-10-09T02:52:15;8.70;99.90
44843;DHT22;31884;52.538;13.820;2023-10-09T02:54:45;8.80;99.90
44843;DHT22;31884;52.538;13.820;2023-10-09T02:57:12;8.70;99.90
44843;DHT22;31884;52.538;13.820;2023-10-09T02:59:53;8.70;99.90
44843;DHT22;31884;52.538;13.820;2023-10-09T03:02:19;8.70;99.90
44843;DHT22;31884;52.538;13.820;2023-10-09T03:04:45;8.70;99.90
44843;DHT22;31884;52.538;13.820;2023-10-09T03:07:10;8.80;99.90
44843;DHT22;31884;52.538;13.820;2023-10-09T03:09:39;8.80;99.90
44843;DHT22;31884;52.538;13.820;2023-10-09T03:12:06;8.80;99.90
44843;DHT22;31884;52.538;13.820;2023-10-09T03:14:36;8.80;99.90
44843;DHT22;31884;52.538;13.820;2023-10-09T03:17:04;8.90;99.90
44843;DHT22;31884;52.538;13.820;2023-10-09T03:19:32;8.80;99.90
44843;DHT22;31884;52.538;13.820;2023-10-09T03:22:03;8.90;99.90
44843;DHT22;31884;52.538;13.820;2023-10-09T03:24:29;8.90;99.90
44843;DHT22;31884;52.538;13.820;2023-10-09T03:26:56;8.90;99.90
44843;DHT22;31884;52.538;13.820;2023-10-09T03:29:23;8.90;99.90
44843;DHT22;31884;52.538;13.820;2023-10-09T03:31:48;8.80;99.90
44843;DHT22;31884;52.538;13.820;2023-10-09T03:34:16;8.80;99.90
44843;DHT22;31884;52.538;13.820;2023-10-09T03:36:42;8.80;99.90
44843;DHT22;31884;52.538;13.820;2023-10-09T03:39:09;8.70;99.90
44843;DHT22;31884;52.538;13.820;2023-10-09T03:41:51;8.70;99.90
44843;DHT22;31884;52.538;13.820;2023-10-09T03:44:17;8.70;99.90
44843;DHT22;31884;52.538;13.820;2023-10-09T03:46:46;8.70;99.90
44843;DHT22;31884;52.538;13.820;2023-10-09T03:49:11;8.70;99.90
44843;DHT22;31884;52.538;13.820;2023-10-09T03:51:38;8.70;99.90
44843;DHT22;31884;52.538;13.820;2023-10-09T03:54:05;8.70;99.90
44843;DHT22;31884;52.538;13.820;2023-10-09T03:56:33;8.70;99.90
44843;DHT22;31884;52.538;13.820;2023-10-09T03:59:00;8.80;99.90
44843;DHT22;31884;52.538;13.820;2023-10-09T04:01:26;8.70;99.90
44843;DHT22;31884;52.538;13.820;2023-10-09T04:03:52;8.80;99.90
44843;DHT22;31884;52.538;13.820;2023-10-09T04:06:23;8.80;99.90
44843;DHT22;31884;52.538;13.820;2023-10-09T04:08:54;8.80;99.90
44843;DHT22;31884;52.538;13.820;2023-10-09T04:11:20;8.70;99.90
44843;DHT22;31884;52.538;13.820;2023-10-09T04:13:49;8.70;99.90
44843;DHT22;31884;52.538;13.820;2023-10-09T04:16:15;8.80;99.90
44843;DHT22;31884;52.538;13.820;2023-10-09T04:18:59;8.80;99.90
44843;DHT22;31884;52.538;13.820;2023-10-09T04:21:25;8.80;99.90
44843;DHT22;31884;52.538;13.820;2023-10-09T04:24:09;8.80;99.90
44843;DHT22;31884;52.538;13.820;2023-10-09T04:26:48;8.80;99.90
44843;DHT22;31884;52.538;13.820;2023-10-09T04:29:14;8.90;99.90
44843;DHT22;31884;52.538;13.820;2023-10-09T04:31:49;8.90;99.90
44843;DHT22;31884;52.538;13.820;2023-10-09T04:34:18;8.90;99.90
44843;DHT22;31884;52.538;13.820;2023-10-09T04:37:02;8.90;99.90
44843;DHT22;31884;52.538;13.820;2023-10-09T04:39:47;8.80;99.90
44843;DHT22;31884;52.538;13.820;2023-10-09T04:42:14;8.80;99.90
44843;DHT22;31884;52.538;13.820;2023-10-09T04:44:49;8.90;99.90
44843;DHT22;31884;52.538;13.820;2023-10-09T04:47:43;8.90;99.90
44843;DHT22;31884;52.538;13.820;2023-10-09T04:50:23;8.90;99.90
44843;DHT22;31884;52.538;13.820;2023-10-09T04:52:55;8.90;99.90
44843;DHT22;31884;52.538;13.820;2023-10-09T04:55:20;8.90;99.90
44843;DHT22;31884;52.538;13.820;2023-10-09T04:57:51;8.80;99.90
44843;DHT22;31884;52.538;13.820;2023-10-09T05:00:35;8.90;99.90
44843;DHT22;31884;52.538;13.820;2023-10-09T05:03:12;8.90;99.90
44843;DHT22;31884;52.538;13.820;2023-10-09T05:05:39;8.90;99.90
44843;DHT22;31884;52.538;13.820;2023-10-09T05:13:30;8.80;99.90
44843;DHT22;31884;52.538;13.820;2023-10-09T05:16:09;8.80;99.90
44843;DHT22;31884;52.538;13.820;2023-10-09T05:18:49;8.90;99.90
44843;DHT22;31884;52.538;13.820;2023-10-09T05:21:39;8.80;99.90
44843;DHT22;31884;52.538;13.820;2023-10-09T05:24:08;8.80;99.90
44843;DHT22;31884;52.538;13.820;2023-10-09T05:26:40;8.80;99.90
44843;DHT22;31884;52.538;13.820;2023-10-09T05:29:25;8.80;99.90
44843;DHT22;31884;52.538;13.820;2023-10-09T05:32:01;8.80;99.90
44843;DHT22;31884;52.538;13.820;2023-10-09T05:34:45;8.80;99.90
44843;DHT22;31884;52.538;13.820;2023-10-09T05:37:27;8.80;99.90
44843;DHT22;31884;52.538;13.820;2023-10-09T05:40:00;8.80;99.90
44843;DHT22;31884;52.538;13.820;2023-10-09T05:42:33;8.80;99.90
44843;DHT22;31884;52.538;13.820;2023-10-09T05:45:05;8.80;99.90
44843;DHT22;31884;52.538;13.820;2023-10-09T05:47:52;8.80;99.90
44843;DHT22;31884;52.538;13.820;2023-10-09T05:50:26;8.80;99.90
44843;DHT22;31884;52.538;13.820;2023-10-09T05:52:53;8.90;99.90
44843;DHT22;31884;52.538;13.820;2023-10-09T05:55:20;8.90;99.90
44843;DHT22;31884;52.538;13.820;2023-10-09T05:57:52;8.90;99.90
44843;DHT22;31884;52.538;13.820;2023-10-09T06:00:20;8.90;99.90
44843;DHT22;31884;52.538;13.820;2023-10-09T06:03:04;9.00;99.90
44843;DHT22;31884;52.538;13.820;2023-10-09T06:05:49;9.00;99.90
44843;DHT22;31884;52.538;13.820;2023-10-09T06:08:22;9.00;99.90
44843;DHT22;31884;52.538;13.820;2023-10-09T06:11:12;9.00;99.90
44843;DHT22;31884;52.538;13.820;2023-10-09T06:14:00;9.00;99.90
44843;DHT22;31884;52.538;13.820;2023-10-09T06:16:30;9.00;99.90
44843;DHT22;31884;52.538;13.820;2023-10-09T06:19:05;9.00;99.90
44843;DHT22;31884;52.538;13.820;2023-10-09T06:21:40;9.00;99.90
44843;DHT22;31884;52.538;13.820;2023-10-09T06:24:19;9.10;99.90
44843;DHT22;31884;52.538;13.820;2023-10-09T06:26:45;9.10;99.90
44843;DHT22;31884;52.538;13.820;2023-10-09T06:29:23;9.20;99.90
44843;DHT22;31884;52.538;13.820;2023-10-09T06:32:06;9.30;99.90
44843;DHT22;31884;52.538;13.820;2023-10-09T06:34:45;9.30;99.90
44843;DHT22;31884;52.538;13.820;2023-10-09T06:37:12;9.40;99.90
44843;DHT22;31884;52.538;13.820;2023-10-09T06:39:50;9.40;99.90
44843;DHT22;31884;52.538;13.820;2023-10-09T06:42:16;9.50;99.90
44843;DHT22;31884;52.538;13.820;2023-10-09T06:45:12;9.50;99.90
44843;DHT22;31884;52.538;13.820;2023-10-09T06:47:49;9.60;99.90
44843;DHT22;31884;52.538;13.820;2023-10-09T06:50:21;9.70;99.90
44843;DHT22;31884;52.538;13.820;2023-10-09T06:52:48;9.70;99.90
44843;DHT22;31884;52.538;13.820;2023-10-09T06:55:26;9.70;99.90
44843;DHT22;31884;52.538;13.820;2023-10-09T06:58:08;9.70;99.90
44843;DHT22;31884;52.538;13.820;2023-10-09T07:00:40;9.70;99.90
44843;DHT22;31884;52.538;13.820;2023-10-09T07:03:25;9.70;99.90
44843;DHT22;31884;52.538;13.820;2023-10-09T07:08:50;9.70;99.90
44843;DHT22;31884;52.538;13.820;2023-10-09T07:11:39;9.70;99.90
44843;DHT22;31884;52.538;13.820;2023-10-09T07:14:13;9.70;99.90
44843;DHT22;31884;52.538;13.820;2023-10-09T07:16:57;9.80;99.90
44843;DHT22;31884;52.538;13.820;2023-10-09T07:19:24;9.80;99.90
44843;DHT22;31884;52.538;13.820;2023-10-09T07:22:11;9.80;99.90
44843;DHT22;31884;52.538;13.820;2023-10-09T07:27:24;9.70;99.90
44843;DHT22;31884;52.538;13.820;2023-10-09T07:30:09;9.70;99.90
44843;DHT22;31884;52.538;13.820;2023-10-09T07:33:06;9.70;99.90
44843;DHT22;31884;52.538;13.820;2023-10-09T07:35:32;9.80;99.90
44843;DHT22;31884;52.538;13.820;2023-10-09T07:38:17;9.80;99.90
44843;DHT22;31884;52.538;13.820;2023-10-09T07:40:47;9.90;99.90
44843;DHT22;31884;52.538;13.820;2023-10-09T07:43:38;10.00;99.90
44843;DHT22;31884;52.538;13.820;2023-10-09T07:46:14;10.00;99.90
44843;DHT22;31884;52.538;13.820;2023-10-09T07:48:56;9.90;99.90
44843;DHT22;31884;52.538;13.820;2023-10-09T07:51:23;9.80;99.90
44843;DHT22;31884;52.538;13.820;2023-10-09T07:53:50;9.70;99.90
44843;DHT22;31884;52.538;13.820;2023-10-09T07:56:23;9.70;99.90
44843;DHT22;31884;52.538;13.820;2023-10-09T07:58:48;9.60;99.90
44843;DHT22;31884;52.538;13.820;2023-10-09T08:01:15;9.70;99.90
44843;DHT22;31884;52.538;13.820;2023-10-09T08:03:46;9.70;99.90
44843;DHT22;31884;52.538;13.820;2023-10-09T08:06:12;9.70;99.90
44843;DHT22;31884;52.538;13.820;2023-10-09T08:08:57;9.70;99.90
44843;DHT22;31884;52.538;13.820;2023-10-09T08:11:38;9.70;99.90
44843;DHT22;31884;52.538;13.820;2023-10-09T08:14:22;9.70;99.90
44843;DHT22;31884;52.538;13.820;2023-10-09T08:17:08;9.70;99.90
44843;DHT22;31884;52.538;13.820;2023-10-09T08:19:49;9.70;99.90
44843;DHT22;31884;52.538;13.820;2023-10-09T08:22:36;9.70;99.90
44843;DHT22;31884;52.538;13.820;2023-10-09T08:25:18;9.70;99.90
44843;DHT22;31884;52.538;13.820;2023-10-09T08:27:57;9.80;99.90
44843;DHT22;31884;52.538;13.820;2023-10-09T08:30:24;9.80;99.90
44843;DHT22;31884;52.538;13.820;2023-10-09T08:32:51;9.80;99.90
44843;DHT22;31884;52.538;13.820;2023-10-09T08:35:33;9.90;99.90
44843;DHT22;31884;52.538;13.820;2023-10-09T08:38:03;10.00;99.90
44843;DHT22;31884;52.538;13.820;2023-10-09T08:40:42;10.00;99.90
44843;DHT22;31884;52.538;13.820;2023-10-09T08:43:15;10.10;99.90
44843;DHT22;31884;52.538;13.820;2023-10-09T08:45:55;10.10;99.90
44843;DHT22;31884;52.538;13.820;2023-10-09T08:48:26;10.10;99.90
44843;DHT22;31884;52.538;13.820;2023-10-09T08:50:53;10.10;99.90
44843;DHT22;31884;52.538;13.820;2023-10-09T08:53:23;10.10;99.90
44843;DHT22;31884;52.538;13.820;2023-10-09T08:55:53;10.10;99.90
44843;DHT22;31884;52.538;13.820;2023-10-09T08:58:19;10.10;99.90
44843;DHT22;31884;52.538;13.820;2023-10-09T09:00:47;10.10;99.90
44843;DHT22;31884;52.538;13.820;2023-10-09T09:03:16;10.20;99.90
44843;DHT22;31884;52.538;13.820;2023-10-09T09:05:58;10.20;99.90
44843;DHT22;31884;52.538;13.820;2023-10-09T09:08:28;10.30;99.90
44843;DHT22;31884;52.538;13.820;2023-10-09T09:10:58;10.40;99.90
44843;DHT22;31884;52.538;13.820;2023-10-09T09:13:31;10.50;99.90
44843;DHT22;31884;52.538;13.820;2023-10-09T09:15:57;10.50;99.90
44843;DHT22;31884;52.538;13.820;2023-10-09T09:18:23;10.40;99.90
44843;DHT22;31884;52.538;13.820;2023-10-09T09:20:48;10.40;99.90
44843;DHT22;31884;52.538;13.820;2023-10-09T09:23:19;10.40;99.90
44843;DHT22;31884;52.538;13.820;2023-10-09T09:25:49;10.40;99.90
44843;DHT22;31884;52.538;13.820;2023-10-09T09:28:24;10.40;99.90
44843;DHT22;31884;52.538;13.820;2023-10-09T09:30:52;10.50;99.90
44843;DHT22;31884;52.538;13.820;2023-10-09T09:33:21;10.50;99.90
44843;DHT22;31884;52.538;13.820;2023-10-09T09:36:04;10.60;99.90
44843;DHT22;31884;52.538;13.820;2023-10-09T09:38:31;10.50;99.90
44843;DHT22;31884;52.538;13.820;2023-10-09T09:41:19;10.50;99.90
44843;DHT22;31884;52.538;13.820;2023-10-09T09:43:57;10.40;99.90
44843;DHT22;31884;52.538;13.820;2023-10-09T09:46:23;10.50;99.90
44843;DHT22;31884;52.538;13.820;2023-10-09T09:49:00;10.60;99.90
44843;DHT22;31884;52.538;13.820;2023-10-09T09:51:25;10.60;99.90
44843;DHT22;31884;52.538;13.820;2023-10-09T09:53:54;10.50;99.90
44843;DHT22;31884;52.538;13.820;2023-10-09T09:56:20;10.60;99.90
44843;DHT22;31884;52.538;13.820;2023-10-09T09:58:50;10.70;99.90
44843;DHT22;31884;52.538;13.820;2023-10-09T10:01:20;10.80;99.90
44843;DHT22;31884;52.538;13.820;2023-10-09T10:04:00;10.80;99.90
44843;DHT22;31884;52.538;13.820;2023-10-09T10:06:28;10.90;99.90
44843;DHT22;31884;52.538;13.820;2023-10-09T10:08:57;10.90;99.90
44843;DHT22;31884;52.538;13.820;2023-10-09T10:11:46;10.90;99.90
44843;DHT22;31884;52.538;13.820;2023-10-09T10:14:14;10.80;99.90
44843;DHT22;31884;52.538;13.820;2023-10-09T10:17:03;10.80;99.90
44843;DHT22;31884;52.538;13.820;2023-10-09T10:19:58;10.80;99.90
44843;DHT22;31884;52.538;13.820;2023-10-09T10:22:39;10.90;99.90
44843;DHT22;31884;52.538;13.820;2023-10-09T10:28:19;11.20;99.90
44843;DHT22;31884;52.538;13.820;2023-10-09T10:31:03;11.30;99.90
44843;DHT22;31884;52.538;13.820;2023-10-09T10:36:23;11.10;99.90
44843;DHT22;31884;52.538;13.820;2023-10-09T10:39:08;11.10;99.90
44843;DHT22;31884;52.538;13.820;2023-10-09T10:41:55;11.20;99.90
44843;DHT22;31884;52.538;13.820;2023-10-09T10:44:31;11.30;99.90
44843;DHT22;31884;52.538;13.820;2023-10-09T10:47:08;11.40;99.90
44843;DHT22;31884;52.538;13.820;2023-10-09T10:49:51;11.30;99.90
44843;DHT22;31884;52.538;13.820;2023-10-09T10:52:22;11.10;99.90
44843;DHT22;31884;52.538;13.820;2023-10-09T10:54:47;11.00;99.90
44843;DHT22;31884;52.538;13.820;2023-10-09T10:57:35;11.00;99.90
44843;DHT22;31884;52.538;13.820;2023-10-09T11:00:19;11.20;99.90
44843;DHT22;31884;52.538;13.820;2023-10-09T11:03:03;11.20;99.90
44843;DHT22;31884;52.538;13.820;2023-10-09T11:05:44;11.10;99.90
44843;DHT22;31884;52.538;13.820;2023-10-09T11:08:16;11.10;99.90
44843;DHT22;31884;52.538;13.820;2023-10-09T11:10:48;11.00;99.90
44843;DHT22;31884;52.538;13.820;2023-10-09T11:13:26;10.90;99.90
44843;DHT22;31884;52.538;13.820;2023-10-09T11:16:00;11.00;99.90
44843;DHT22;31884;52.538;13.820;2023-10-09T11:18:42;10.90;99.90
44843;DHT22;31884;52.538;13.820;2023-10-09T11:21:14;10.90;99.90
44843;DHT22;31884;52.538;13.820;2023-10-09T11:23:41;11.00;99.90
44843;DHT22;31884;52.538;13.820;2023-10-09T11:26:24;11.00;99.90
44843;DHT22;31884;52.538;13.820;2023-10-09T11:29:14;11.10;99.90
44843;DHT22;31884;52.538;13.820;2023-10-09T11:34:28;11.40;99.90
44843;DHT22;31884;52.538;13.820;2023-10-09T11:37:13;11.50;99.90
44843;DHT22;31884;52.538;13.820;2023-10-09T11:39:41;11.50;99.90
44843;DHT22;31884;52.538;13.820;2023-10-09T11:42:18;11.60;99.90
44843;DHT22;31884;52.538;13.820;2023-10-09T11:45:07;11.70;99.90
44843;DHT22;31884;52.538;13.820;2023-10-09T11:47:52;11.70;99.90
44843;DHT22;31884;52.538;13.820;2023-10-09T11:50:46;11.70;99.90
44843;DHT22;31884;52.538;13.820;2023-10-09T11:53:19;11.70;99.90
44843;DHT22;31884;52.538;13.820;2023-10-09T11:55:48;11.60;99.90
44843;DHT22;31884;52.538;13.820;2023-10-09T11:58:17;11.60;99.90
44843;DHT22;31884;52.538;13.820;2023-10-09T12:00:53;11.70;99.90
44843;DHT22;31884;52.538;13.820;2023-10-09T12:03:29;11.80;99.90
44843;DHT22;31884;52.538;13.820;2023-10-09T12:06:02;11.90;99.90
44843;DHT22;31884;52.538;13.820;2023-10-09T12:08:31;11.90;99.90
44843;DHT22;31884;52.538;13.820;2023-10-09T12:10:57;11.90;99.90
44843;DHT22;31884;52.538;13.820;2023-10-09T12:13:24;11.90;99.90
44843;DHT22;31884;52.538;13.820;2023-10-09T12:15:51;11.90;99.90
44843;DHT22;31884;52.538;13.820;2023-10-09T12:18:21;11.80;99.90
44843;DHT22;31884;52.538;13.820;2023-10-09T12:20:47;11.80;99.90
44843;DHT22;31884;52.538;13.820;2023-10-09T12:23:21;11.90;99.90
44843;DHT22;31884;52.538;13.820;2023-10-09T12:25:50;12.00;99.90
44843;DHT22;31884;52.538;13.820;2023-10-09T12:28:16;12.10;99.90
44843;DHT22;31884;52.538;13.820;2023-10-09T12:30:46;12.20;99.90
44843;DHT22;31884;52.538;13.820;2023-10-09T12:33:16;12.40;99.90
44843;DHT22;31884;52.538;13.820;2023-10-09T12:35:42;12.50;99.90
44843;DHT22;31884;52.538;13.820;2023-10-09T12:38:11;12.60;99.90
44843;DHT22;31884;52.538;13.820;2023-10-09T12:40:38;12.80;99.90
44843;DHT22;31884;52.538;13.820;2023-10-09T12:43:05;12.80;99.90
44843;DHT22;31884;52.538;13.820;2023-10-09T12:45:34;12.90;99.90
44843;DHT22;31884;52.538;13.820;2023-10-09T12:47:59;12.90;99.90
44843;DHT22;31884;52.538;13.820;2023-10-09T12:50:30;12.70;99.90
44843;DHT22;31884;52.538;13.820;2023-10-09T12:52:59;12.50;99.90
44843;DHT22;31884;52.538;13.820;2023-10-09T12:55:28;12.40;99.90
44843;DHT22;31884;52.538;13.820;2023-10-09T12:58:00;12.50;99.90
44843;DHT22;31884;52.538;13.820;2023-10-09T13:00:32;12.50;99.90
44843;DHT22;31884;52.538;13.820;2023-10-09T13:02:58;12.70;99.90
44843;DHT22;31884;52.538;13.820;2023-10-09T13:05:26;12.80;99.90
44843;DHT22;31884;52.538;13.820;2023-10-09T13:07:53;12.90;99.90
44843;DHT22;31884;52.538;13.820;2023-10-09T13:10:23;12.80;99.90
44843;DHT22;31884;52.538;13.820;2023-10-09T13:12:49;12.80;99.90
44843;DHT22;31884;52.538;13.820;2023-10-09T13:15:20;12.90;99.90
44843;DHT22;31884;52.538;13.820;2023-10-09T13:17:46;12.90;99.90
44843;DHT22;31884;52.538;13.820;2023-10-09T13:20:11;12.70;99.60
44843;DHT22;31884;52.538;13.820;2023-10-09T13:22:42;12.50;99.90
44843;DHT22;31884;52.538;13.820;2023-10-09T13:25:09;12.30;99.90
44843;DHT22;31884;52.538;13.820;2023-10-09T13:27:44;12.10;99.90
44843;DHT22;31884;52.538;13.820;2023-10-09T13:30:19;12.00;99.90
44843;DHT22;31884;52.538;13.820;2023-10-09T13:32:49;12.00;99.90
44843;DHT22;31884;52.538;13.820;2023-10-09T13:35:19;12.20;99.90
44843;DHT22;31884;52.538;13.820;2023-10-09T13:37:45;12.30;99.90
44843;DHT22;31884;52.538;13.820;2023-10-09T13:40:22;12.30;99.90
44843;DHT22;31884;52.538;13.820;2023-10-09T13:42:55;12.40;99.90
44843;DHT22;31884;52.538;13.820;2023-10-09T13:45:30;12.40;99.90
44843;DHT22;31884;52.538;13.820;2023-10-09T13:47:58;12.40;99.90
44843;DHT22;31884;52.538;13.820;2023-10-09T13:50:24;12.30;99.90
44843;DHT22;31884;52.538;13.820;2023-10-09T13:52:54;12.30;99.90
44843;DHT22;31884;52.538;13.820;2023-10-09T13:55:20;12.30;99.90
44843;DHT22;31884;52.538;13.820;2023-10-09T13:57:46;12.30;99.90
44843;DHT22;31884;52.538;13.820;2023-10-09T14:00:14;12.30;99.90
44843;DHT22;31884;52.538;13.820;2023-10-09T14:02:58;12.40;99.90
44843;DHT22;31884;52.538;13.820;2023-10-09T14:05:27;12.40;99.90
44843;DHT22;31884;52.538;13.820;2023-10-09T14:07:53;12.50;99.90
44843;DHT22;31884;52.538;13.820;2023-10-09T14:10:22;12.50;99.90
44843;DHT22;31884;52.538;13.820;2023-10-09T14:12:52;12.60;99.90
44843;DHT22;31884;52.538;13.820;2023-10-09T14:15:19;12.60;99.90
44843;DHT22;31884;52.538;13.820;2023-10-09T14:17:45;12.60;99.90
44843;DHT22;31884;52.538;13.820;2023-10-09T14:20:12;12.70;99.90
44843;DHT22;31884;52.538;13.820;2023-10-09T14:22:58;12.80;99.90
44843;DHT22;31884;52.538;13.820;2023-10-09T14:25:31;12.80;99.90
44843;DHT22;31884;52.538;13.820;2023-10-09T14:27:57;12.90;99.90
44843;DHT22;31884;52.538;13.820;2023-10-09T14:30:23;12.80;99.90
44843;DHT22;31884;52.538;13.820;2023-10-09T14:32:56;12.70;99.90
44843;DHT22;31884;52.538;13.820;2023-10-09T14:35:22;12.70;99.90
44843;DHT22;31884;52.538;13.820;2023-10-09T14:37:52;12.70;99.90
44843;DHT22;31884;52.538;13.820;2023-10-09T14:40:19;12.70;99.90
44843;DHT22;31884;52.538;13.820;2023-10-09T14:42:55;12.50;99.90
44843;DHT22;31884;52.538;13.820;2023-10-09T14:45:26;12.40;99.90
44843;DHT22;31884;52.538;13.820;2023-10-09T14:47:52;12.40;99.90
44843;DHT22;31884;52.538;13.820;2023-10-09T14:50:20;12.30;99.90
44843;DHT22;31884;52.538;13.820;2023-10-09T14:52:48;12.30;99.90
44843;DHT22;31884;52.538;13.820;2023-10-09T14:55:13;12.30;99.90
44843;DHT22;31884;52.538;13.820;2023-10-09T14:57:39;12.20;99.90
44843;DHT22;31884;52.538;13.820;2023-10-09T15:00:05;12.00;99.90
44843;DHT22;31884;52.538;13.820;2023-10-09T15:02:39;11.90;99.90
44843;DHT22;31884;52.538;13.820;2023-10-09T15:05:05;12.00;99.90
44843;DHT22;31884;52.538;13.820;2023-10-09T15:07:30;11.90;99.90
44843;DHT22;31884;52.538;13.820;2023-10-09T15:09:56;11.90;99.90
44843;DHT22;31884;52.538;13.820;2023-10-09T15:12:29;11.90;99.90
44843;DHT22;31884;52.538;13.820;2023-10-09T15:14:54;11.80;99.90
44843;DHT22;31884;52.538;13.820;2023-10-09T15:17:21;11.80;99.90
44843;DHT22;31884;52.538;13.820;2023-10-09T15:19:47;11.80;99.90
44843;DHT22;31884;52.538;13.820;2023-10-09T15:22:12;11.80;99.90
44843;DHT22;31884;52.538;13.820;2023-10-09T15:24:38;11.80;99.90
44843;DHT22;31884;52.538;13.820;2023-10-09T15:27:04;11.70;99.90
44843;DHT22;31884;52.538;13.820;2023-10-09T15:29:31;11.70;99.90
44843;DHT22;31884;52.538;13.820;2023-10-09T15:31:59;11.60;99.90
44843;DHT22;31884;52.538;13.820;2023-10-09T15:34:40;11.60;99.90
44843;DHT22;31884;52.538;13.820;2023-10-09T15:37:07;11.60;99.90
44843;DHT22;31884;52.538;13.820;2023-10-09T15:39:34;11.60;99.90
44843;DHT22;31884;52.538;13.820;2023-10-09T15:41:59;11.70;99.90
44843;DHT22;31884;52.538;13.820;2023-10-09T15:44:25;11.70;99.90
44843;DHT22;31884;52.538;13.820;2023-10-09T15:46:51;11.60;99.90
44843;DHT22;31884;52.538;13.820;2023-10-09T15:49:27;11.50;99.90
44843;DHT22;31884;52.538;13.820;2023-10-09T15:51:55;11.50;99.90
44843;DHT22;31884;52.538;13.820;2023-10-09T15:54:21;11.40;99.90
44843;DHT22;31884;52.538;13.820;2023-10-09T15:56:46;11.40;99.90
44843;DHT22;31884;52.538;13.820;2023-10-09T15:59:12;11.30;99.90
44843;DHT22;31884;52.538;13.820;2023-10-09T16:01:38;11.30;99.90
44843;DHT22;31884;52.538;13.820;2023-10-09T16:04:11;11.20;99.90
44843;DHT22;31884;52.538;13.820;2023-10-09T16:06:37;11.20;99.90
44843;DHT22;31884;52.538;13.820;2023-10-09T16:09:06;11.10;99.90
44843;DHT22;31884;52.538;13.820;2023-10-09T16:11:37;11.10;99.90
44843;DHT22;31884;52.538;13.820;2023-10-09T16:14:03;11.10;99.90
44843;DHT22;31884;52.538;13.820;2023-10-09T16:16:35;11.10;99.90